Hideaway Lake (907, 908, 1021, 1022) Station Data

Red Flag Warning: No
Fire Weather Zone: 250
SDGE Region: North East
Lat/Lon: 33.24/-117.045

Observations

Time Wind Speed/Gust Temp(F) RH Fuel Moist Fuel Temp(F) Dewpt(F) Tmax(F) Tmin(F) Accum Precip 10-min Precip SL Press(mb)
3/29 8:00am 116 1 G 4 57° 36% - - 31° 63.1° 49.9° - - -
3/29 7:50am 109 3 G 5 58° 37% - - 32° 63.1° 49.9° - - -
3/29 7:40am 324 1 G 3 62° 24% - - 24° 63.1° 49.9° - - -
3/29 7:30am 325 1 G 2 59° 28% - - 26° 60.5° 49.9° - - -
3/29 7:20am 24 2 G 3 57° 30% - - 27° 58.2° 49.9° - - -
3/29 7:10am 178 2 G 3 56° 33% - - 28° 57.4° 49.9° - - -
3/29 7:00am 147 2 G 4 56° 33% - - 27° 57.2° 49.9° - - -
3/29 6:50am 155 1 G 3 56° 33% - - 27° 56.4° 49.9° - - -
3/29 6:40am 208 1 G 2 54° 36% - - 28° 55° 49.9° - - -
3/29 6:30am 158 2 G 5 54° 39% - - 29° 54.3° 49.9° - - -
3/29 6:20am 142 4 G 6 53° 40% - - 30° 54.3° 49.9° - - -
3/29 6:10am 143 2 G 3 53° 44% - - 31° 54.3° 49.9° - - -
3/29 6:00am 122 2 G 5 54° 44% - - 32° 54.3° 49.9° - - -
3/29 5:50am 114 1 G 2 52° 48% - - 33° 54.3° 49.9° - - -
3/29 5:40am 122 2 G 5 52° 51% - - 34° 54.3° 49.9° - - -
3/29 5:30am 120 2 G 3 52° 50% - - 34° 54.3° 49.9° - - -
3/29 5:20am 165 2 G 4 52° 52% - - 35° 54.3° 49.9° - - -
3/29 5:10am 138 2 G 4 51° 52% - - 34° 54.3° 49.9° - - -
3/29 5:00am 119 2 G 4 51° 51% - - 34° 54.3° 49.9° - - -
3/29 4:50am 123 1 G 4 51° 53% - - 34° 54.3° 49.9° - - -
3/29 4:40am 142 1 G 3 51° 53% - - 34° 54.3° 49.9° - - -
3/29 4:30am 135 2 G 3 51° 54% - - 35° 54.3° 49.9° - - -
3/29 4:20am 98 1 G 2 52° 52% - - 35° 54.3° 49.9° - - -
3/29 4:10am 77 0 G 1 51° 55% - - 35° 54.3° 49.9° - - -
3/29 4:00am 123 1 G 2 51° 55% - - 35° 54.3° 49.9° - - -
3/29 3:50am 193 1 G 2 51° 55% - - 36° 54.3° 49.9° - - -
3/29 3:40am 143 1 G 3 52° 55% - - 36° 54.3° 49.9° - - -
3/29 3:30am 106 0 G 3 50° 59% - - 37° 54.3° 49.9° - - -
3/29 3:20am 167 1 G 3 50° 61% - - 37° 54.3° 50° - - -
3/29 3:10am 159 1 G 5 52° 57% - - 37° 54.3° 50.2° - - -
3/29 3:00am 278 0 G 2 51° 57% - - 37° 54.3° 50.2° - - -
3/29 2:50am 113 1 G 3 52° 57% - - 37° 54.3° 50.2° - - -
3/29 2:40am 308 1 G 2 51° 60% - - 38° 54.3° 50.2° - - -
3/29 2:30am 133 1 G 3 50° 62% - - 38° 54.3° 50.2° - - -
3/29 2:20am 112 3 G 5 52° 57% - - 37° 54.3° 50.2° - - -
3/29 2:10am 196 2 G 4 51° 62% - - 38° 53.9° 50.2° - - -
3/29 2:00am 85 2 G 4 53° 55% - - 37° 53.9° 50.2° - - -
3/29 1:50am 98 2 G 4 53° 56% - - 38° 53.6° 50.2° - - -
3/29 1:40am 56 1 G 4 51° 65% - - 40° 52.9° 50.2° - - -
3/29 1:30am 115 2 G 4 52° 64% - - 40° 52.7° 50.2° - - -
3/29 1:20am 279 1 G 2 52° 64% - - 40° 52.7° 50.2° - - -
3/29 1:10am 214 1 G 2 51° 66% - - 40° 52.7° 50.2° - - -
3/29 1:00am 112 2 G 4 52° 63% - - 40° 52.7° 50.2° - - -
3/29 12:50am 268 1 G 2 52° 64% - - 40° 52.5° 50.2° - - -
3/29 12:40am 109 1 G 2 51° 66% - - 40° 52.5° 50.2° - - -
3/29 12:30am 128 0 G 1 50° 66% - - 39° 52.5° 50.3° - - -
3/29 12:20am 143 1 G 3 51° 64% - - 39° 52.5° 50.7° - - -
3/29 12:10am 136 1 G 3 52° 62% - - 39° 52.5° 51.1° - - -
3/29 12:00am 103 3 G 4 53° 58% - - 39° 71.9° 43.3° - - -
3/28 11:50pm 89 2 G 3 55° 55% - - 39° 71.9° 43.3° - - -
3/28 11:40pm 87 1 G 2 55° 55% - - 39° 71.9° 43.3° - - -
3/28 11:30pm 103 1 G 2 55° 56% - - 39° 71.9° 43.3° - - -
3/28 11:20pm 83 1 G 2 56° 54% - - 39° 71.9° 43.3° - - -
3/28 11:10pm 115 2 G 3 57° 53% - - 40° 71.9° 43.3° - - -
3/28 11:00pm 132 2 G 3 55° 54% - - 39° 71.9° 43.3° - - -
3/28 10:50pm 136 1 G 4 54° 57% - - 39° 71.9° 43.3° - - -
3/28 10:40pm 148 2 G 4 54° 59% - - 39° 71.9° 43.3° - - -
3/28 10:30pm 147 2 G 3 54° 58% - - 39° 71.9° 43.3° - - -
3/28 10:20pm 127 2 G 4 54° 57% - - 39° 71.9° 43.3° - - -
3/28 10:10pm 124 2 G 3 55° 55% - - 39° 71.9° 43.3° - - -
3/28 10:00pm 130 2 G 3 55° 54% - - 39° 71.9° 43.3° - - -
3/28 9:50pm 130 2 G 3 55° 55% - - 39° 71.9° 43.3° - - -
3/28 9:40pm 133 2 G 3 55° 53% - - 38° 71.9° 43.3° - - -
3/28 9:30pm 99 1 G 3 54° 54% - - 38° 71.9° 43.3° - - -
3/28 9:20pm 144 1 G 2 54° 55% - - 38° 71.9° 43.3° - - -
3/28 9:10pm 131 3 G 4 55° 53% - - 39° 71.9° 43.3° - - -
3/28 9:00pm 113 2 G 3 57° 49% - - 38° 71.9° 43.3° - - -
3/28 8:50pm 130 1 G 2 57° 49% - - 38° 71.9° 43.3° - - -
3/28 8:40pm 112 2 G 3 58° 45% - - 37° 71.9° 43.3° - - -
3/28 8:30pm 141 1 G 3 58° 44% - - 36° 71.9° 43.3° - - -
3/28 8:20pm 189 1 G 2 59° 43% - - 36° 71.9° 43.3° - - -
3/28 8:10pm 242 1 G 2 59° 41% - - 36° 71.9° 43.3° - - -
3/28 8:00pm 252 1 G 2 59° 41% - - 36° 71.9° 43.3° - - -
3/28 7:50pm 224 1 G 2 59° 41% - - 36° 71.9° 43.3° - - -
3/28 7:40pm 200 1 G 2 60° 40% - - 35° 71.9° 43.3° - - -
3/28 7:30pm 197 1 G 2 60° 39% - - 35° 71.9° 43.3° - - -
3/28 7:20pm 237 1 G 2 61° 35% - - 33° 71.9° 43.3° - - -
3/28 7:10pm 288 3 G 4 62° 33% - - 32° 71.9° 43.3° - - -
3/28 7:00pm 307 3 G 5 62° 33% - - 33° 71.9° 43.3° - - -
3/28 6:50pm 243 2 G 4 63° 33% - - 34° 71.9° 43.3° - - -
3/28 6:40pm 273 2 G 5 64° 32% - - 34° 71.9° 43.3° - - -
3/28 6:30pm 252 2 G 7 64° 33% - - 34° 71.9° 43.3° - - -
3/28 6:20pm 309 5 G 8 64° 33% - - 35° 71.9° 43.3° - - -
3/28 6:10pm 314 4 G 8 64° 33% - - 35° 71.9° 43.3° - - -
3/28 6:00pm 297 4 G 6 65° 33% - - 35° 71.9° 43.3° - - -
3/28 5:50pm 293 5 G 8 65° 34% - - 36° 71.9° 43.3° - - -
3/28 5:40pm 273 5 G 8 65° 33% - - 36° 71.9° 43.3° - - -
3/28 5:30pm 288 6 G 9 66° 33% - - 36° 71.9° 43.3° - - -
3/28 5:20pm 301 6 G 11 66° 35% - - 38° 71.9° 43.3° - - -
3/28 5:10pm 297 7 G 12 67° 37% - - 39° 71.9° 43.3° - - -
3/28 5:00pm 274 5 G 12 69° 32% - - 37° 71.9° 43.3° - - -
3/28 4:50pm 256 7 G 11 68° 30% - - 36° 71.9° 43.3° - - -
3/28 4:40pm 262 6 G 11 69° 30% - - 36° 71.9° 43.3° - - -
3/28 4:30pm 260 6 G 13 69° 30% - - 37° 71.9° 43.3° - - -
3/28 4:20pm 253 6 G 11 69° 32% - - 38° 71.9° 43.3° - - -
3/28 4:10pm 254 7 G 12 69° 33% - - 39° 71.9° 43.3° - - -
3/28 4:00pm 250 7 G 13 70° 33% - - 39° 71.9° 43.3° - - -
3/28 3:50pm 253 6 G 12 70° 32% - - 39° 71.9° 43.3° - - -
3/28 3:40pm 282 5 G 10 71° 26% - - 34° 71.9° 43.3° - - -
3/28 3:30pm 296 4 G 8 72° 25% - - 34° 71.9° 43.3° - - -
3/28 3:20pm 305 6 G 10 71° 25% - - 33° 71.5° 43.3° - - -
3/28 3:10pm 271 5 G 13 71° 27% - - 35° 71.5° 43.3° - - -
3/28 3:00pm 290 4 G 9 70° 26% - - 34° 71° 43.3° - - -
3/28 2:50pm 274 6 G 11 70° 27% - - 35° 70.9° 43.3° - - -
3/28 2:40pm 283 5 G 11 70° 28% - - 36° 70.9° 43.3° - - -
3/28 2:30pm 281 6 G 11 70° 27% - - 35° 70.9° 43.3° - - -
3/28 2:20pm 312 5 G 10 70° 25% - - 33° 70.9° 43.3° - - -
3/28 2:10pm 290 5 G 11 70° 26% - - 34° 70.9° 43.3° - - -
3/28 2:00pm 282 5 G 12 70° 28% - - 35° 70.9° 43.3° - - -
3/28 1:50pm 268 4 G 12 70° 26% - - 34° 70.7° 43.3° - - -
3/28 1:40pm 328 4 G 9 70° 23% - - 30° 70.5° 43.3° - - -
3/28 1:30pm 312 6 G 12 69° 23% - - 30° 70.5° 43.3° - - -
3/28 1:20pm 284 5 G 11 69° 25% - - 32° 70.5° 43.3° - - -
3/28 1:10pm 304 6 G 12 69° 25% - - 32° 69.9° 43.3° - - -
3/28 1:00pm 261 4 G 9 69° 23% - - 29° 69.9° 43.3° - - -
3/28 12:50pm 298 4 G 10 68° 23% - - 29° 69.5° 43.3° - - -
3/28 12:40pm 329 3 G 10 67° 23% - - 29° 68.1° 43.3° - - -
3/28 12:30pm 313 4 G 10 67° 24% - - 29° 67.6° 43.3° - - -
3/28 12:20pm 277 6 G 10 67° 24% - - 29° 67.5° 43.3° - - -
3/28 12:10pm 260 6 G 11 67° 25% - - 29° 67.5° 43.3° - - -
3/28 12:00pm 309 4 G 7 67° 26% - - 30° 67.5° 43.3° - - -
3/28 11:50am 352 5 G 10 66° 26% - - 30° 66.6° 43.3° - - -
3/28 11:40am 321 4 G 8 65° 25% - - 29° 66° 43.3° - - -
3/28 11:30am 287 4 G 9 65° 27% - - 30° 66° 43.3° - - -
3/28 11:20am 329 4 G 8 65° 29% - - 32° 65.5° 43.3° - - -
3/28 11:10am 315 4 G 8 64° 31% - - 33° 64.6° 43.3° - - -
3/28 11:00am 284 4 G 8 63° 33% - - 34° 63.5° 43.3° - - -
3/28 10:50am 297 5 G 9 63° 34% - - 34° 63.2° 43.3° - - -
3/28 10:40am 294 6 G 10 62° 36% - - 35° 62.6° 43.3° - - -
3/28 10:30am 296 5 G 11 61° 39% - - 36° 61.8° 43.3° - - -
3/28 10:20am 307 6 G 10 61° 41% - - 37° 61.2° 43.3° - - -
3/28 10:10am 296 5 G 10 60° 44% - - 38° 60.5° 43.3° - - -
3/28 10:00am 308 4 G 7 60° 47% - - 39° 60.5° 43.3° - - -
3/28 9:50am 272 3 G 6 59° 50% - - 40° 59.6° 43.3° - - -
3/28 9:40am 288 2 G 5 58° 51% - - 40° 59.1° 43.3° - - -
3/28 9:30am 313 3 G 6 57° 50% - - 39° 58.1° 43.3° - - -
3/28 9:20am 329 3 G 7 57° 52% - - 40° 58.1° 43.3° - - -
3/28 9:10am 303 1 G 4 58° 54% - - 41° 58.1° 43.3° - - -
3/28 9:00am 253 1 G 3 57° 58% - - 42° 57.6° 43.3° - - -
3/28 8:50am 182 1 G 3 56° 59% - - 42° 57° 43.3° - - -
3/28 8:40am 109 1 G 3 56° 60% - - 42° 56.4° 43.3° - - -
3/28 8:30am 175 0 G 1 55° 63% - - 43° 56.4° 43.3° - - -
3/28 8:20am 188 1 G 2 52° 71% - - 43° 52.8° 43.3° - - -
3/28 8:10am 104 2 G 5 50° 76% - - 43° 51° 43.3° - - -
3/28 8:00am 132 1 G 4 50° 78% - - 44° 50.9° 43.3° - - -
3/28 7:50am 235 1 G 1 50° 77% - - 43° 50.1° 43.3° - - -
3/28 7:40am 132 0 G 2 48° 83% - - 43° 49.1° 43.3° - - -
3/28 7:30am 141 1 G 3 46° 84% - - 41° 48.8° 43.3° - - -
3/28 7:20am 108 2 G 4 46° 82% - - 41° 48.8° 43.3° - - -
3/28 7:10am 75 2 G 4 45° 86% - - 41° 48.8° 43.3° - - -
3/28 7:00am 97 1 G 3 44° 88% - - 40° 48.8° 43.3° - - -
3/28 6:50am 49 1 G 2 44° 87% - - 40° 48.8° 43.4° - - -
3/28 6:40am 88 3 G 4 45° 82% - - 40° 48.8° 43.7° - - -
3/28 6:30am 46 2 G 3 46° 81% - - 41° 48.8° 43.7° - - -
3/28 6:20am 237 2 G 6 45° 81% - - 40° 48.8° 43.7° - - -
3/28 6:10am 63 2 G 4 47° 82% - - 42° 48.8° 43.7° - - -
3/28 6:00am 254 3 G 6 44° 87% - - 41° 48.8° 43.7° - - -